sensor_id;sensor_type;location;lat;lon;timestamp;temperature;humidity
43185;DHT22;28803;52.308;19.096;2023-12-22T00:01:14;3.40;1.00
43185;DHT22;28803;52.308;19.096;2023-12-22T00:03:45;3.40;1.00
43185;DHT22;28803;52.308;19.096;2023-12-22T00:06:12;3.40;1.00
43185;DHT22;28803;52.308;19.096;2023-12-22T00:08:40;3.30;1.00
43185;DHT22;28803;52.308;19.096;2023-12-22T00:11:08;3.30;1.00
43185;DHT22;28803;52.308;19.096;2023-12-22T00:13:36;3.30;1.00
43185;DHT22;28803;52.308;19.096;2023-12-22T00:16:03;3.50;1.00
43185;DHT22;28803;52.308;19.096;2023-12-22T00:18:31;3.60;1.00
43185;DHT22;28803;52.308;19.096;2023-12-22T00:20:59;3.70;1.00
43185;DHT22;28803;52.308;19.096;2023-12-22T00:23:27;3.80;1.00
43185;DHT22;28803;52.308;19.096;2023-12-22T00:25:54;3.80;1.00
43185;DHT22;28803;52.308;19.096;2023-12-22T00:28:22;3.80;1.00
43185;DHT22;28803;52.308;19.096;2023-12-22T00:30:50;3.70;1.00
43185;DHT22;28803;52.308;19.096;2023-12-22T00:33:18;3.60;1.00
43185;DHT22;28803;52.308;19.096;2023-12-22T00:35:48;3.50;1.00
43185;DHT22;28803;52.308;19.096;2023-12-22T00:38:16;3.50;1.00
43185;DHT22;28803;52.308;19.096;2023-12-22T00:40:44;3.50;1.00
43185;DHT22;28803;52.308;19.096;2023-12-22T00:43:12;3.40;1.00
43185;DHT22;28803;52.308;19.096;2023-12-22T00:45:39;3.40;1.00
43185;DHT22;28803;52.308;19.096;2023-12-22T00:48:07;3.40;1.00
43185;DHT22;28803;52.308;19.096;2023-12-22T00:50:34;3.40;1.00
43185;DHT22;28803;52.308;19.096;2023-12-22T00:53:02;3.50;1.00
43185;DHT22;28803;52.308;19.096;2023-12-22T00:55:29;3.60;1.00
43185;DHT22;28803;52.308;19.096;2023-12-22T00:57:57;3.60;1.00
43185;DHT22;28803;52.308;19.096;2023-12-22T01:00:25;3.60;1.00
43185;DHT22;28803;52.308;19.096;2023-12-22T01:02:53;3.80;1.00
43185;DHT22;28803;52.308;19.096;2023-12-22T01:05:20;3.90;1.00
43185;DHT22;28803;52.308;19.096;2023-12-22T01:07:48;3.90;1.00
43185;DHT22;28803;52.308;19.096;2023-12-22T01:10:16;4.00;1.00
43185;DHT22;28803;52.308;19.096;2023-12-22T01:12:44;4.10;1.00
43185;DHT22;28803;52.308;19.096;2023-12-22T01:15:11;4.10;1.00
43185;DHT22;28803;52.308;19.096;2023-12-22T01:17:39;4.10;1.00
43185;DHT22;28803;52.308;19.096;2023-12-22T01:20:08;4.10;1.00
43185;DHT22;28803;52.308;19.096;2023-12-22T01:22:35;4.10;1.00
43185;DHT22;28803;52.308;19.096;2023-12-22T01:25:05;4.10;99.90
43185;DHT22;28803;52.308;19.096;2023-12-22T01:27:33;4.00;99.90
43185;DHT22;28803;52.308;19.096;2023-12-22T01:30:00;4.10;99.90
43185;DHT22;28803;52.308;19.096;2023-12-22T01:32:28;4.00;99.90
43185;DHT22;28803;52.308;19.096;2023-12-22T01:35:01;4.00;99.90
43185;DHT22;28803;52.308;19.096;2023-12-22T01:37:34;4.00;99.90
43185;DHT22;28803;52.308;19.096;2023-12-22T01:40:02;3.90;1.00
43185;DHT22;28803;52.308;19.096;2023-12-22T01:42:31;3.90;1.00
43185;DHT22;28803;52.308;19.096;2023-12-22T01:44:58;3.80;1.00
43185;DHT22;28803;52.308;19.096;2023-12-22T01:47:26;3.80;1.00
43185;DHT22;28803;52.308;19.096;2023-12-22T01:49:53;3.70;1.00
43185;DHT22;28803;52.308;19.096;2023-12-22T01:52:22;3.60;1.00
43185;DHT22;28803;52.308;19.096;2023-12-22T01:54:50;3.50;1.00
43185;DHT22;28803;52.308;19.096;2023-12-22T01:57:18;3.50;1.00
43185;DHT22;28803;52.308;19.096;2023-12-22T01:59:48;3.50;1.00
43185;DHT22;28803;52.308;19.096;2023-12-22T02:02:16;3.50;1.00
43185;DHT22;28803;52.308;19.096;2023-12-22T02:04:44;3.50;1.00
43185;DHT22;28803;52.308;19.096;2023-12-22T02:07:12;3.50;1.00
43185;DHT22;28803;52.308;19.096;2023-12-22T02:09:40;3.60;1.00
43185;DHT22;28803;52.308;19.096;2023-12-22T02:12:07;3.60;1.00
43185;DHT22;28803;52.308;19.096;2023-12-22T02:14:34;3.70;1.00
43185;DHT22;28803;52.308;19.096;2023-12-22T02:17:15;3.70;99.90
43185;DHT22;28803;52.308;19.096;2023-12-22T02:19:49;3.80;99.90
43185;DHT22;28803;52.308;19.096;2023-12-22T02:25:42;3.90;99.90
43185;DHT22;28803;52.308;19.096;2023-12-22T02:28:12;3.80;99.90
43185;DHT22;28803;52.308;19.096;2023-12-22T02:33:16;3.70;99.90
43185;DHT22;28803;52.308;19.096;2023-12-22T02:35:44;3.60;99.90
43185;DHT22;28803;52.308;19.096;2023-12-22T02:38:16;3.70;99.90
43185;DHT22;28803;52.308;19.096;2023-12-22T02:40:44;3.70;99.90
43185;DHT22;28803;52.308;19.096;2023-12-22T02:43:12;3.70;99.90
43185;DHT22;28803;52.308;19.096;2023-12-22T02:45:39;3.70;99.90
43185;DHT22;28803;52.308;19.096;2023-12-22T02:48:07;3.70;99.90
43185;DHT22;28803;52.308;19.096;2023-12-22T02:50:35;3.70;99.90
43185;DHT22;28803;52.308;19.096;2023-12-22T02:53:02;3.70;99.90
43185;DHT22;28803;52.308;19.096;2023-12-22T02:55:29;3.70;99.90
43185;DHT22;28803;52.308;19.096;2023-12-22T02:57:57;3.70;99.90
43185;DHT22;28803;52.308;19.096;2023-12-22T03:00:35;3.70;99.90
43185;DHT22;28803;52.308;19.096;2023-12-22T03:03:03;3.60;99.90
43185;DHT22;28803;52.308;19.096;2023-12-22T03:05:30;3.60;99.90
43185;DHT22;28803;52.308;19.096;2023-12-22T03:07:58;3.60;99.90
43185;DHT22;28803;52.308;19.096;2023-12-22T03:10:26;3.60;99.90
43185;DHT22;28803;52.308;19.096;2023-12-22T03:12:53;3.70;99.90
43185;DHT22;28803;52.308;19.096;2023-12-22T03:15:21;3.70;99.90
43185;DHT22;28803;52.308;19.096;2023-12-22T03:17:48;3.70;99.90
43185;DHT22;28803;52.308;19.096;2023-12-22T03:20:15;3.70;99.90
43185;DHT22;28803;52.308;19.096;2023-12-22T03:22:43;3.70;99.90
43185;DHT22;28803;52.308;19.096;2023-12-22T03:25:11;3.70;99.90
43185;DHT22;28803;52.308;19.096;2023-12-22T03:27:38;3.70;99.90
43185;DHT22;28803;52.308;19.096;2023-12-22T03:30:06;3.70;99.90
43185;DHT22;28803;52.308;19.096;2023-12-22T03:32:37;3.70;99.90
43185;DHT22;28803;52.308;19.096;2023-12-22T03:35:04;3.60;99.90
43185;DHT22;28803;52.308;19.096;2023-12-22T03:37:33;3.60;99.90
43185;DHT22;28803;52.308;19.096;2023-12-22T03:40:00;3.40;99.90
43185;DHT22;28803;52.308;19.096;2023-12-22T03:42:28;3.00;1.00
43185;DHT22;28803;52.308;19.096;2023-12-22T03:44:55;2.70;1.00
43185;DHT22;28803;52.308;19.096;2023-12-22T03:47:23;2.50;1.00
43185;DHT22;28803;52.308;19.096;2023-12-22T03:49:50;2.40;1.00
43185;DHT22;28803;52.308;19.096;2023-12-22T03:52:18;2.40;1.00
43185;DHT22;28803;52.308;19.096;2023-12-22T03:54:45;2.40;6.30
43185;DHT22;28803;52.308;19.096;2023-12-22T03:57:12;2.40;21.10
43185;DHT22;28803;52.308;19.096;2023-12-22T03:59:39;2.40;29.40
43185;DHT22;28803;52.308;19.096;2023-12-22T04:02:07;2.40;39.70
43185;DHT22;28803;52.308;19.096;2023-12-22T04:04:38;2.30;45.70
43185;DHT22;28803;52.308;19.096;2023-12-22T04:07:08;2.30;56.80
43185;DHT22;28803;52.308;19.096;2023-12-22T04:09:37;2.30;56.60
43185;DHT22;28803;52.308;19.096;2023-12-22T04:12:05;2.30;56.80
43185;DHT22;28803;52.308;19.096;2023-12-22T04:14:33;2.30;45.50
43185;DHT22;28803;52.308;19.096;2023-12-22T04:17:00;2.30;41.40
43185;DHT22;28803;52.308;19.096;2023-12-22T04:19:28;2.40;28.80
43185;DHT22;28803;52.308;19.096;2023-12-22T04:21:55;2.40;8.40
43185;DHT22;28803;52.308;19.096;2023-12-22T04:24:22;2.40;1.00
43185;DHT22;28803;52.308;19.096;2023-12-22T04:26:50;2.50;1.00
43185;DHT22;28803;52.308;19.096;2023-12-22T04:29:17;2.40;1.00
43185;DHT22;28803;52.308;19.096;2023-12-22T04:31:45;2.50;1.00
43185;DHT22;28803;52.308;19.096;2023-12-22T04:34:13;2.50;99.90
43185;DHT22;28803;52.308;19.096;2023-12-22T04:36:43;2.60;99.90
43185;DHT22;28803;52.308;19.096;2023-12-22T04:39:10;2.70;99.90
43185;DHT22;28803;52.308;19.096;2023-12-22T04:41:37;2.70;99.90
43185;DHT22;28803;52.308;19.096;2023-12-22T04:44:04;2.70;99.90
43185;DHT22;28803;52.308;19.096;2023-12-22T04:46:32;2.80;99.90
43185;DHT22;28803;52.308;19.096;2023-12-22T04:48:59;2.80;99.90
43185;DHT22;28803;52.308;19.096;2023-12-22T04:51:27;2.90;99.90
43185;DHT22;28803;52.308;19.096;2023-12-22T04:53:54;3.00;99.90
43185;DHT22;28803;52.308;19.096;2023-12-22T04:56:22;3.00;99.90
43185;DHT22;28803;52.308;19.096;2023-12-22T04:58:49;3.10;99.90
43185;DHT22;28803;52.308;19.096;2023-12-22T05:01:17;3.10;99.90
43185;DHT22;28803;52.308;19.096;2023-12-22T05:03:45;3.10;99.90
43185;DHT22;28803;52.308;19.096;2023-12-22T05:06:12;3.10;99.90
43185;DHT22;28803;52.308;19.096;2023-12-22T05:08:40;3.20;1.00
43185;DHT22;28803;52.308;19.096;2023-12-22T05:11:07;3.20;1.00
43185;DHT22;28803;52.308;19.096;2023-12-22T05:13:34;3.20;17.70
43185;DHT22;28803;52.308;19.096;2023-12-22T05:16:02;3.30;28.50
43185;DHT22;28803;52.308;19.096;2023-12-22T05:18:31;3.30;20.90
43185;DHT22;28803;52.308;19.096;2023-12-22T05:20:59;3.40;19.20
43185;DHT22;28803;52.308;19.096;2023-12-22T05:23:26;3.40;17.80
43185;DHT22;28803;52.308;19.096;2023-12-22T05:25:54;3.40;18.20
43185;DHT22;28803;52.308;19.096;2023-12-22T05:28:21;3.30;21.10
43185;DHT22;28803;52.308;19.096;2023-12-22T05:30:48;3.20;19.40
43185;DHT22;28803;52.308;19.096;2023-12-22T05:33:15;3.30;16.10
43185;DHT22;28803;52.308;19.096;2023-12-22T05:35:43;3.30;17.60
43185;DHT22;28803;52.308;19.096;2023-12-22T05:38:10;3.30;21.00
43185;DHT22;28803;52.308;19.096;2023-12-22T05:40:38;3.20;23.30
43185;DHT22;28803;52.308;19.096;2023-12-22T05:43:05;3.10;25.00
43185;DHT22;28803;52.308;19.096;2023-12-22T05:45:32;3.00;28.80
43185;DHT22;28803;52.308;19.096;2023-12-22T05:47:59;2.80;28.70
43185;DHT22;28803;52.308;19.096;2023-12-22T05:50:27;2.80;28.70
43185;DHT22;28803;52.308;19.096;2023-12-22T05:52:54;2.80;31.10
43185;DHT22;28803;52.308;19.096;2023-12-22T05:55:22;2.80;30.10
43185;DHT22;28803;52.308;19.096;2023-12-22T05:57:49;2.70;27.50
43185;DHT22;28803;52.308;19.096;2023-12-22T06:00:17;2.70;28.30
43185;DHT22;28803;52.308;19.096;2023-12-22T06:02:45;2.70;24.30
43185;DHT22;28803;52.308;19.096;2023-12-22T06:05:12;2.80;24.20
43185;DHT22;28803;52.308;19.096;2023-12-22T06:07:40;2.70;27.00
43185;DHT22;28803;52.308;19.096;2023-12-22T06:10:08;2.70;26.80
43185;DHT22;28803;52.308;19.096;2023-12-22T06:12:36;2.60;29.10
43185;DHT22;28803;52.308;19.096;2023-12-22T06:15:04;2.60;30.50
43185;DHT22;28803;52.308;19.096;2023-12-22T06:17:32;2.50;31.50
43185;DHT22;28803;52.308;19.096;2023-12-22T06:20:00;2.50;30.10
43185;DHT22;28803;52.308;19.096;2023-12-22T06:22:28;2.50;31.30
43185;DHT22;28803;52.308;19.096;2023-12-22T06:24:56;2.40;34.70
43185;DHT22;28803;52.308;19.096;2023-12-22T06:27:23;2.30;36.10
43185;DHT22;28803;52.308;19.096;2023-12-22T06:29:50;2.20;36.40
43185;DHT22;28803;52.308;19.096;2023-12-22T06:32:19;2.20;31.20
43185;DHT22;28803;52.308;19.096;2023-12-22T06:34:46;2.20;25.80
43185;DHT22;28803;52.308;19.096;2023-12-22T06:37:14;2.20;24.80
43185;DHT22;28803;52.308;19.096;2023-12-22T06:39:41;2.20;25.60
43185;DHT22;28803;52.308;19.096;2023-12-22T06:42:08;2.00;26.00
43185;DHT22;28803;52.308;19.096;2023-12-22T06:44:38;1.90;26.90
43185;DHT22;28803;52.308;19.096;2023-12-22T06:47:08;1.90;25.80
43185;DHT22;28803;52.308;19.096;2023-12-22T06:49:36;1.90;27.40
43185;DHT22;28803;52.308;19.096;2023-12-22T06:52:04;1.80;26.00
43185;DHT22;28803;52.308;19.096;2023-12-22T06:54:31;1.90;25.90
43185;DHT22;28803;52.308;19.096;2023-12-22T06:57:00;1.90;25.30
43185;DHT22;28803;52.308;19.096;2023-12-22T06:59:27;1.80;24.60
43185;DHT22;28803;52.308;19.096;2023-12-22T07:01:56;1.80;27.20
43185;DHT22;28803;52.308;19.096;2023-12-22T07:04:39;1.80;30.40
43185;DHT22;28803;52.308;19.096;2023-12-22T07:07:06;1.90;33.40
43185;DHT22;28803;52.308;19.096;2023-12-22T07:09:34;2.00;37.30
43185;DHT22;28803;52.308;19.096;2023-12-22T07:12:02;2.10;40.20
43185;DHT22;28803;52.308;19.096;2023-12-22T07:14:31;2.20;43.60
43185;DHT22;28803;52.308;19.096;2023-12-22T07:17:01;2.30;46.80
43185;DHT22;28803;52.308;19.096;2023-12-22T07:19:29;2.30;48.70
43185;DHT22;28803;52.308;19.096;2023-12-22T07:21:56;2.40;49.20
43185;DHT22;28803;52.308;19.096;2023-12-22T07:24:24;2.40;50.80
43185;DHT22;28803;52.308;19.096;2023-12-22T07:26:51;2.50;50.50
43185;DHT22;28803;52.308;19.096;2023-12-22T07:29:21;2.30;51.40
43185;DHT22;28803;52.308;19.096;2023-12-22T07:31:51;2.20;55.10
43185;DHT22;28803;52.308;19.096;2023-12-22T07:34:18;2.10;57.20
43185;DHT22;28803;52.308;19.096;2023-12-22T07:36:46;2.10;58.50
43185;DHT22;28803;52.308;19.096;2023-12-22T07:39:26;2.10;60.00
43185;DHT22;28803;52.308;19.096;2023-12-22T07:41:53;2.10;60.30
43185;DHT22;28803;52.308;19.096;2023-12-22T07:44:21;2.10;56.80
43185;DHT22;28803;52.308;19.096;2023-12-22T07:46:59;2.20;53.50
43185;DHT22;28803;52.308;19.096;2023-12-22T07:49:30;2.20;48.80
43185;DHT22;28803;52.308;19.096;2023-12-22T07:52:00;2.30;48.60
43185;DHT22;28803;52.308;19.096;2023-12-22T07:54:30;2.30;48.30
43185;DHT22;28803;52.308;19.096;2023-12-22T07:56:58;2.30;46.20
43185;DHT22;28803;52.308;19.096;2023-12-22T07:59:26;2.40;43.50
43185;DHT22;28803;52.308;19.096;2023-12-22T08:01:58;2.50;43.20
43185;DHT22;28803;52.308;19.096;2023-12-22T08:04:27;2.40;41.60
43185;DHT22;28803;52.308;19.096;2023-12-22T08:06:54;2.50;41.50
43185;DHT22;28803;52.308;19.096;2023-12-22T08:09:22;2.50;42.40
43185;DHT22;28803;52.308;19.096;2023-12-22T08:11:50;2.60;42.70
43185;DHT22;28803;52.308;19.096;2023-12-22T08:14:20;2.60;40.50
43185;DHT22;28803;52.308;19.096;2023-12-22T08:16:50;2.60;40.10
43185;DHT22;28803;52.308;19.096;2023-12-22T08:19:21;2.70;39.80
43185;DHT22;28803;52.308;19.096;2023-12-22T08:21:54;2.80;39.20
43185;DHT22;28803;52.308;19.096;2023-12-22T08:24:23;2.90;37.90
43185;DHT22;28803;52.308;19.096;2023-12-22T08:26:51;3.00;37.90
43185;DHT22;28803;52.308;19.096;2023-12-22T08:29:19;3.10;38.10
43185;DHT22;28803;52.308;19.096;2023-12-22T08:31:47;3.40;34.60
43185;DHT22;28803;52.308;19.096;2023-12-22T08:34:15;3.60;31.20
43185;DHT22;28803;52.308;19.096;2023-12-22T08:36:45;3.80;30.00
43185;DHT22;28803;52.308;19.096;2023-12-22T08:39:13;4.00;28.80
43185;DHT22;28803;52.308;19.096;2023-12-22T08:41:41;3.90;26.80
43185;DHT22;28803;52.308;19.096;2023-12-22T08:44:09;3.70;29.50
43185;DHT22;28803;52.308;19.096;2023-12-22T08:46:37;3.40;33.20
43185;DHT22;28803;52.308;19.096;2023-12-22T08:49:06;3.20;40.10
43185;DHT22;28803;52.308;19.096;2023-12-22T08:51:35;3.00;47.30
43185;DHT22;28803;52.308;19.096;2023-12-22T08:54:02;2.80;54.50
43185;DHT22;28803;52.308;19.096;2023-12-22T08:56:31;2.70;58.60
43185;DHT22;28803;52.308;19.096;2023-12-22T08:58:59;2.60;57.20
43185;DHT22;28803;52.308;19.096;2023-12-22T09:01:27;2.60;57.60
43185;DHT22;28803;52.308;19.096;2023-12-22T09:03:55;2.70;56.30
43185;DHT22;28803;52.308;19.096;2023-12-22T09:06:24;2.50;61.40
43185;DHT22;28803;52.308;19.096;2023-12-22T09:08:52;1.70;78.70
43185;DHT22;28803;52.308;19.096;2023-12-22T09:11:20;1.10;95.00
43185;DHT22;28803;52.308;19.096;2023-12-22T09:13:49;0.70;99.90
43185;DHT22;28803;52.308;19.096;2023-12-22T09:16:21;0.50;99.90
43185;DHT22;28803;52.308;19.096;2023-12-22T09:18:49;0.30;99.90
43185;DHT22;28803;52.308;19.096;2023-12-22T09:21:17;0.30;99.90
43185;DHT22;28803;52.308;19.096;2023-12-22T09:23:46;0.20;99.90
43185;DHT22;28803;52.308;19.096;2023-12-22T09:26:14;0.20;99.90
43185;DHT22;28803;52.308;19.096;2023-12-22T09:28:42;0.20;99.90
43185;DHT22;28803;52.308;19.096;2023-12-22T09:31:10;0.20;99.90
43185;DHT22;28803;52.308;19.096;2023-12-22T09:33:37;0.20;99.90
43185;DHT22;28803;52.308;19.096;2023-12-22T09:36:05;0.30;99.90
43185;DHT22;28803;52.308;19.096;2023-12-22T09:38:34;0.40;99.90
43185;DHT22;28803;52.308;19.096;2023-12-22T09:41:01;0.40;99.90
43185;DHT22;28803;52.308;19.096;2023-12-22T09:43:31;0.60;99.90
43185;DHT22;28803;52.308;19.096;2023-12-22T09:46:02;0.60;99.90
43185;DHT22;28803;52.308;19.096;2023-12-22T09:48:31;0.60;99.90
43185;DHT22;28803;52.308;19.096;2023-12-22T09:51:00;0.60;99.90
43185;DHT22;28803;52.308;19.096;2023-12-22T09:53:30;0.60;99.90
43185;DHT22;28803;52.308;19.096;2023-12-22T09:55:59;0.70;99.90
43185;DHT22;28803;52.308;19.096;2023-12-22T09:58:27;0.70;99.90
43185;DHT22;28803;52.308;19.096;2023-12-22T10:00:55;0.70;99.90
43185;DHT22;28803;52.308;19.096;2023-12-22T10:03:24;0.80;99.90
43185;DHT22;28803;52.308;19.096;2023-12-22T10:05:53;1.10;99.90
43185;DHT22;28803;52.308;19.096;2023-12-22T10:08:21;1.30;99.90
43185;DHT22;28803;52.308;19.096;2023-12-22T10:10:49;1.40;99.90
43185;DHT22;28803;52.308;19.096;2023-12-22T10:13:20;1.50;99.90
43185;DHT22;28803;52.308;19.096;2023-12-22T10:15:48;1.50;99.90
43185;DHT22;28803;52.308;19.096;2023-12-22T10:18:16;1.50;99.90
43185;DHT22;28803;52.308;19.096;2023-12-22T10:20:44;1.60;99.90
43185;DHT22;28803;52.308;19.096;2023-12-22T10:23:13;1.80;99.90
43185;DHT22;28803;52.308;19.096;2023-12-22T10:25:41;1.90;99.90
43185;DHT22;28803;52.308;19.096;2023-12-22T10:28:12;2.00;99.90
43185;DHT22;28803;52.308;19.096;2023-12-22T10:30:41;2.00;99.90
43185;DHT22;28803;52.308;19.096;2023-12-22T10:33:09;2.00;99.90
43185;DHT22;28803;52.308;19.096;2023-12-22T10:35:36;1.80;99.90
43185;DHT22;28803;52.308;19.096;2023-12-22T10:38:04;1.80;99.90
43185;DHT22;28803;52.308;19.096;2023-12-22T10:40:31;1.80;99.90
43185;DHT22;28803;52.308;19.096;2023-12-22T10:42:59;1.80;99.90
43185;DHT22;28803;52.308;19.096;2023-12-22T10:45:28;1.80;99.90
43185;DHT22;28803;52.308;19.096;2023-12-22T10:47:57;1.80;99.90
43185;DHT22;28803;52.308;19.096;2023-12-22T10:50:25;1.80;99.90
43185;DHT22;28803;52.308;19.096;2023-12-22T10:52:53;1.90;99.90
43185;DHT22;28803;52.308;19.096;2023-12-22T10:55:20;2.10;99.90
43185;DHT22;28803;52.308;19.096;2023-12-22T10:57:48;2.30;99.90
43185;DHT22;28803;52.308;19.096;2023-12-22T11:00:16;2.40;99.90
43185;DHT22;28803;52.308;19.096;2023-12-22T11:02:47;2.30;99.90
43185;DHT22;28803;52.308;19.096;2023-12-22T11:05:16;2.20;99.90
43185;DHT22;28803;52.308;19.096;2023-12-22T11:07:49;2.20;99.90
43185;DHT22;28803;52.308;19.096;2023-12-22T11:10:20;2.20;99.90
43185;DHT22;28803;52.308;19.096;2023-12-22T11:12:50;2.10;99.90
43185;DHT22;28803;52.308;19.096;2023-12-22T11:15:18;2.30;99.90
43185;DHT22;28803;52.308;19.096;2023-12-22T11:17:48;2.00;99.90
43185;DHT22;28803;52.308;19.096;2023-12-22T11:20:18;2.00;99.90
43185;DHT22;28803;52.308;19.096;2023-12-22T11:22:47;1.90;99.90
43185;DHT22;28803;52.308;19.096;2023-12-22T11:25:18;1.80;99.90
43185;DHT22;28803;52.308;19.096;2023-12-22T11:27:47;1.70;99.90
43185;DHT22;28803;52.308;19.096;2023-12-22T11:30:16;1.70;99.90
43185;DHT22;28803;52.308;19.096;2023-12-22T11:32:46;1.70;99.90
43185;DHT22;28803;52.308;19.096;2023-12-22T11:35:16;1.60;99.90
43185;DHT22;28803;52.308;19.096;2023-12-22T11:37:45;1.70;99.90
43185;DHT22;28803;52.308;19.096;2023-12-22T11:40:14;1.70;99.90
43185;DHT22;28803;52.308;19.096;2023-12-22T11:42:47;1.70;99.90
43185;DHT22;28803;52.308;19.096;2023-12-22T11:45:18;1.70;99.90
43185;DHT22;28803;52.308;19.096;2023-12-22T11:47:46;1.70;99.90
43185;DHT22;28803;52.308;19.096;2023-12-22T11:50:31;1.70;99.90
43185;DHT22;28803;52.308;19.096;2023-12-22T11:53:30;1.70;99.90
43185;DHT22;28803;52.308;19.096;2023-12-22T11:56:03;1.70;99.90
43185;DHT22;28803;52.308;19.096;2023-12-22T11:58:52;1.80;99.90
43185;DHT22;28803;52.308;19.096;2023-12-22T12:01:25;1.80;99.90
43185;DHT22;28803;52.308;19.096;2023-12-22T12:03:56;1.80;99.90
43185;DHT22;28803;52.308;19.096;2023-12-22T12:08:54;1.80;99.90
43185;DHT22;28803;52.308;19.096;2023-12-22T12:11:23;1.80;99.90
43185;DHT22;28803;52.308;19.096;2023-12-22T12:13:51;1.90;99.90
43185;DHT22;28803;52.308;19.096;2023-12-22T12:16:21;1.80;99.90
43185;DHT22;28803;52.308;19.096;2023-12-22T12:18:50;1.80;99.90
43185;DHT22;28803;52.308;19.096;2023-12-22T12:21:18;1.80;99.90
43185;DHT22;28803;52.308;19.096;2023-12-22T12:23:45;1.80;99.90
43185;DHT22;28803;52.308;19.096;2023-12-22T12:26:16;1.80;99.90
43185;DHT22;28803;52.308;19.096;2023-12-22T12:28:45;1.90;99.90
43185;DHT22;28803;52.308;19.096;2023-12-22T12:31:14;1.90;99.90
43185;DHT22;28803;52.308;19.096;2023-12-22T12:33:42;1.90;99.90
43185;DHT22;28803;52.308;19.096;2023-12-22T12:36:11;2.00;99.90
43185;DHT22;28803;52.308;19.096;2023-12-22T12:39:07;2.00;99.90
43185;DHT22;28803;52.308;19.096;2023-12-22T12:41:41;2.10;99.90
43185;DHT22;28803;52.308;19.096;2023-12-22T12:44:09;2.10;99.90
43185;DHT22;28803;52.308;19.096;2023-12-22T12:46:38;2.20;99.90
43185;DHT22;28803;52.308;19.096;2023-12-22T12:49:08;2.10;99.90
43185;DHT22;28803;52.308;19.096;2023-12-22T12:51:39;2.20;99.10
43185;DHT22;28803;52.308;19.096;2023-12-22T12:54:08;2.20;99.90
43185;DHT22;28803;52.308;19.096;2023-12-22T12:56:40;2.10;99.80
43185;DHT22;28803;52.308;19.096;2023-12-22T12:59:12;2.10;99.30
43185;DHT22;28803;52.308;19.096;2023-12-22T13:01:40;2.10;99.90
43185;DHT22;28803;52.308;19.096;2023-12-22T13:04:10;2.10;99.90
43185;DHT22;28803;52.308;19.096;2023-12-22T13:06:47;2.10;99.80
43185;DHT22;28803;52.308;19.096;2023-12-22T13:09:15;2.10;99.90
43185;DHT22;28803;52.308;19.096;2023-12-22T13:11:44;2.00;99.90
43185;DHT22;28803;52.308;19.096;2023-12-22T13:14:24;2.10;99.90
43185;DHT22;28803;52.308;19.096;2023-12-22T13:16:56;1.90;99.90
43185;DHT22;28803;52.308;19.096;2023-12-22T13:19:25;1.90;99.90
43185;DHT22;28803;52.308;19.096;2023-12-22T13:21:54;1.90;99.90
43185;DHT22;28803;52.308;19.096;2023-12-22T13:24:22;1.90;99.90
43185;DHT22;28803;52.308;19.096;2023-12-22T13:27:01;1.90;99.90
43185;DHT22;28803;52.308;19.096;2023-12-22T13:29:30;1.80;99.90
43185;DHT22;28803;52.308;19.096;2023-12-22T13:32:08;1.80;99.90
43185;DHT22;28803;52.308;19.096;2023-12-22T13:34:36;1.70;99.90
43185;DHT22;28803;52.308;19.096;2023-12-22T13:37:04;1.70;99.90
43185;DHT22;28803;52.308;19.096;2023-12-22T13:39:32;1.70;99.90
43185;DHT22;28803;52.308;19.096;2023-12-22T13:41:59;1.80;99.90
43185;DHT22;28803;52.308;19.096;2023-12-22T13:44:27;1.80;99.90
43185;DHT22;28803;52.308;19.096;2023-12-22T13:46:54;1.80;99.90
43185;DHT22;28803;52.308;19.096;2023-12-22T13:49:22;1.80;99.90
43185;DHT22;28803;52.308;19.096;2023-12-22T13:51:49;1.90;99.90
43185;DHT22;28803;52.308;19.096;2023-12-22T13:54:17;1.90;99.90
43185;DHT22;28803;52.308;19.096;2023-12-22T13:56:44;1.90;99.90
43185;DHT22;28803;52.308;19.096;2023-12-22T13:59:13;2.00;99.90
43185;DHT22;28803;52.308;19.096;2023-12-22T14:01:41;2.00;99.90
43185;DHT22;28803;52.308;19.096;2023-12-22T14:04:09;1.90;99.90
43185;DHT22;28803;52.308;19.096;2023-12-22T14:06:37;2.00;99.90
43185;DHT22;28803;52.308;19.096;2023-12-22T14:09:05;2.00;99.90
43185;DHT22;28803;52.308;19.096;2023-12-22T14:11:33;2.10;99.90
43185;DHT22;28803;52.308;19.096;2023-12-22T14:14:00;2.20;99.90
43185;DHT22;28803;52.308;19.096;2023-12-22T14:16:28;2.10;99.90
43185;DHT22;28803;52.308;19.096;2023-12-22T14:18:56;2.10;99.60
43185;DHT22;28803;52.308;19.096;2023-12-22T14:21:23;2.10;96.80
43185;DHT22;28803;52.308;19.096;2023-12-22T14:23:51;2.10;94.80
43185;DHT22;28803;52.308;19.096;2023-12-22T14:26:18;2.20;93.50
43185;DHT22;28803;52.308;19.096;2023-12-22T14:28:45;2.20;91.60
43185;DHT22;28803;52.308;19.096;2023-12-22T14:31:17;2.20;91.80
43185;DHT22;28803;52.308;19.096;2023-12-22T14:33:45;2.20;90.10
43185;DHT22;28803;52.308;19.096;2023-12-22T14:36:12;2.20;88.40
43185;DHT22;28803;52.308;19.096;2023-12-22T14:38:39;2.20;80.60
43185;DHT22;28803;52.308;19.096;2023-12-22T14:41:06;2.40;75.20
43185;DHT22;28803;52.308;19.096;2023-12-22T14:43:37;2.40;69.30
43185;DHT22;28803;52.308;19.096;2023-12-22T14:46:04;2.40;66.20
43185;DHT22;28803;52.308;19.096;2023-12-22T14:48:33;2.50;61.50
43185;DHT22;28803;52.308;19.096;2023-12-22T14:51:00;2.60;60.20
43185;DHT22;28803;52.308;19.096;2023-12-22T14:53:28;2.50;56.90
43185;DHT22;28803;52.308;19.096;2023-12-22T14:55:55;2.60;51.00
43185;DHT22;28803;52.308;19.096;2023-12-22T14:58:24;2.60;49.70
43185;DHT22;28803;52.308;19.096;2023-12-22T15:00:51;2.70;42.70
43185;DHT22;28803;52.308;19.096;2023-12-22T15:03:19;2.70;42.10
43185;DHT22;28803;52.308;19.096;2023-12-22T15:05:46;2.80;40.50
43185;DHT22;28803;52.308;19.096;2023-12-22T15:08:14;2.80;36.60
43185;DHT22;28803;52.308;19.096;2023-12-22T15:10:41;2.80;33.30
43185;DHT22;28803;52.308;19.096;2023-12-22T15:13:09;2.90;31.90
43185;DHT22;28803;52.308;19.096;2023-12-22T15:15:36;2.90;30.80
43185;DHT22;28803;52.308;19.096;2023-12-22T15:18:03;2.90;30.20
43185;DHT22;28803;52.308;19.096;2023-12-22T15:20:39;2.90;29.10
43185;DHT22;28803;52.308;19.096;2023-12-22T15:23:06;3.00;27.60
43185;DHT22;28803;52.308;19.096;2023-12-22T15:25:34;2.90;27.20
43185;DHT22;28803;52.308;19.096;2023-12-22T15:28:01;2.90;28.20
43185;DHT22;28803;52.308;19.096;2023-12-22T15:30:29;3.00;23.90
43185;DHT22;28803;52.308;19.096;2023-12-22T15:32:57;3.00;23.70
43185;DHT22;28803;52.308;19.096;2023-12-22T15:35:24;3.00;23.80
43185;DHT22;28803;52.308;19.096;2023-12-22T15:37:51;3.00;22.60
43185;DHT22;28803;52.308;19.096;2023-12-22T15:40:19;3.00;23.50
43185;DHT22;28803;52.308;19.096;2023-12-22T15:42:46;3.00;23.60
43185;DHT22;28803;52.308;19.096;2023-12-22T15:45:14;2.90;23.50
43185;DHT22;28803;52.308;19.096;2023-12-22T15:47:41;2.90;24.20
43185;DHT22;28803;52.308;19.096;2023-12-22T15:50:10;2.90;23.10